createdAt,value
2019-05-22T00:02:41.769Z,99.90
2019-05-22T00:05:16.558Z,99.90
2019-05-22T00:07:47.186Z,99.90
2019-05-22T00:10:19.741Z,99.90
2019-05-22T00:12:50.004Z,99.90
2019-05-22T00:15:21.106Z,99.90
2019-05-22T00:17:50.940Z,99.90
2019-05-22T00:20:24.756Z,99.90
2019-05-22T00:22:54.992Z,99.90
2019-05-22T00:25:33.086Z,99.90
2019-05-22T00:28:02.240Z,99.90
2019-05-22T00:30:35.979Z,99.90
2019-05-22T00:33:07.774Z,99.90
2019-05-22T00:35:38.591Z,99.90
2019-05-22T00:38:09.619Z,99.90
2019-05-22T00:40:47.529Z,99.90
2019-05-22T00:43:18.494Z,99.90
2019-05-22T00:45:50.689Z,99.90
2019-05-22T00:48:23.842Z,99.90
2019-05-22T00:51:12.152Z,99.90
2019-05-22T00:53:58.179Z,99.90
2019-05-22T00:56:54.607Z,99.90
2019-05-22T00:59:26.876Z,99.90
2019-05-22T01:02:01.807Z,99.90
2019-05-22T01:04:36.091Z,99.90
2019-05-22T01:07:12.182Z,99.90
2019-05-22T01:09:44.471Z,99.90
2019-05-22T01:12:29.341Z,99.90
2019-05-22T01:15:04.416Z,99.90
2019-05-22T01:17:36.837Z,99.90
2019-05-22T01:20:10.182Z,99.90
2019-05-22T01:22:41.733Z,99.90
2019-05-22T01:25:14.812Z,99.90
2019-05-22T01:27:46.030Z,99.90
2019-05-22T01:30:24.612Z,99.90
2019-05-22T01:32:54.961Z,99.90
2019-05-22T01:35:33.505Z,99.90
2019-05-22T01:38:04.577Z,99.90
2019-05-22T01:40:45.297Z,99.90
2019-05-22T01:43:19.707Z,99.90
2019-05-22T01:45:55.262Z,99.90
2019-05-22T01:48:30.502Z,99.90
2019-05-22T01:51:01.506Z,99.90
2019-05-22T01:53:35.971Z,99.90
2019-05-22T01:56:07.918Z,99.90
2019-05-22T01:58:41.309Z,99.90
2019-05-22T02:01:16.547Z,99.90
2019-05-22T02:03:47.871Z,99.90
2019-05-22T02:06:19.459Z,99.90
2019-05-22T02:08:53.206Z,99.90
2019-05-22T02:11:24.586Z,99.90
2019-05-22T02:13:58.864Z,99.90
2019-05-22T02:16:31.941Z,99.90
2019-05-22T02:19:03.002Z,99.90
2019-05-22T02:21:33.901Z,99.90
2019-05-22T02:24:04.874Z,99.90
2019-05-22T02:26:35.139Z,99.90
2019-05-22T02:29:06.207Z,99.90
2019-05-22T02:31:36.560Z,99.90
2019-05-22T02:34:08.037Z,99.90
2019-05-22T02:36:39.609Z,99.90
2019-05-22T02:39:30.498Z,99.90
2019-05-22T02:42:05.478Z,99.90
2019-05-22T02:44:36.570Z,99.90
2019-05-22T02:47:19.054Z,99.90
2019-05-22T02:49:40.048Z,99.90
2019-05-22T02:52:10.269Z,99.90
2019-05-22T02:54:40.164Z,99.90
2019-05-22T02:57:11.694Z,99.90
2019-05-22T02:59:43.191Z,99.90
2019-05-22T03:02:15.829Z,99.90
2019-05-22T03:04:58.981Z,99.90
2019-05-22T03:07:30.368Z,99.90
2019-05-22T03:10:02.518Z,99.90
2019-05-22T03:12:35.312Z,99.90
2019-05-22T03:15:07.507Z,99.90
2019-05-22T03:17:41.087Z,99.90
2019-05-22T03:20:14.260Z,99.90
2019-05-22T03:23:31.227Z,99.90
2019-05-22T03:26:01.922Z,99.90
2019-05-22T03:28:32.008Z,99.90
2019-05-22T03:31:02.189Z,99.90
2019-05-22T03:33:31.990Z,99.90
2019-05-22T03:36:10.598Z,99.90
2019-05-22T03:38:42.922Z,99.90
2019-05-22T03:41:13.449Z,99.90
2019-05-22T03:43:46.094Z,99.90
2019-05-22T03:46:34.476Z,99.90
2019-05-22T03:49:05.821Z,99.90
2019-05-22T03:51:36.270Z,99.90
2019-05-22T03:54:06.778Z,99.90
2019-05-22T03:56:42.378Z,99.90
2019-05-22T03:59:12.821Z,99.90
2019-05-22T04:01:44.945Z,99.90
2019-05-22T04:04:20.219Z,99.90
2019-05-22T04:06:52.277Z,99.90
2019-05-22T04:09:25.297Z,99.90
2019-05-22T04:11:55.955Z,99.90
2019-05-22T04:14:35.221Z,99.90
2019-05-22T04:17:07.838Z,99.90
2019-05-22T04:19:49.366Z,99.90
2019-05-22T04:22:10.796Z,99.90
2019-05-22T04:24:40.787Z,99.90
2019-05-22T04:27:11.796Z,99.90
2019-05-22T04:29:42.180Z,99.90
2019-05-22T04:32:41.526Z,99.90
2019-05-22T04:35:15.641Z,99.90
2019-05-22T04:37:47.332Z,99.90
2019-05-22T04:40:48.788Z,99.90
2019-05-22T04:43:24.947Z,99.90
2019-05-22T04:45:55.654Z,99.90
2019-05-22T04:48:26.961Z,99.90
2019-05-22T04:50:58.466Z,99.90
2019-05-22T04:53:30.419Z,99.90
2019-05-22T04:56:00.182Z,99.90
2019-05-22T04:58:31.182Z,99.90
2019-05-22T05:01:00.901Z,99.90
2019-05-22T05:03:30.341Z,99.90
2019-05-22T05:06:00.120Z,99.90
2019-05-22T05:08:30.297Z,99.90
2019-05-22T05:11:02.390Z,99.90
2019-05-22T05:13:32.441Z,99.90
2019-05-22T05:16:02.950Z,99.90
2019-05-22T05:18:32.964Z,99.90
2019-05-22T05:21:03.005Z,99.90
2019-05-22T05:23:32.763Z,99.90
2019-05-22T05:26:03.219Z,99.90
2019-05-22T05:28:33.454Z,99.90
2019-05-22T05:31:03.512Z,99.90
2019-05-22T05:33:38.242Z,99.90
2019-05-22T05:36:08.940Z,99.90
2019-05-22T05:38:39.401Z,99.90
2019-05-22T05:41:09.579Z,99.90
2019-05-22T05:43:40.323Z,99.90
2019-05-22T05:46:11.832Z,99.90
2019-05-22T05:48:42.058Z,99.90
2019-05-22T05:51:45.300Z,99.90
2019-05-22T05:54:18.240Z,99.90
2019-05-22T05:56:50.367Z,99.90
2019-05-22T05:59:21.727Z,99.90
2019-05-22T06:01:54.613Z,99.90
2019-05-22T06:04:35.432Z,99.90
2019-05-22T06:07:21.012Z,99.90
2019-05-22T06:10:23.754Z,99.90
2019-05-22T06:12:53.483Z,99.90
2019-05-22T06:15:45.911Z,99.90
2019-05-22T06:18:38.363Z,99.90
2019-05-22T06:21:08.834Z,99.90
2019-05-22T06:24:19.939Z,99.90
2019-05-22T06:26:57.821Z,99.90
2019-05-22T06:29:33.141Z,99.90
2019-05-22T06:32:32.653Z,99.90
2019-05-22T06:35:03.520Z,99.90
2019-05-22T06:37:40.378Z,99.90
2019-05-22T06:40:11.715Z,99.90
2019-05-22T06:42:44.055Z,99.90
2019-05-22T06:45:15.166Z,99.90
2019-05-22T06:47:44.684Z,99.90
2019-05-22T06:50:15.436Z,99.90
2019-05-22T06:52:46.699Z,99.90
2019-05-22T06:55:16.093Z,99.90
2019-05-22T06:57:45.602Z,99.90
2019-05-22T07:00:25.815Z,99.90
2019-05-22T07:02:55.750Z,99.90
2019-05-22T07:05:26.369Z,99.90
2019-05-22T07:07:57.068Z,99.90
2019-05-22T07:10:27.091Z,99.90
2019-05-22T07:12:57.776Z,99.90
2019-05-22T07:15:30.955Z,99.90
2019-05-22T07:18:03.227Z,99.90
2019-05-22T07:20:35.720Z,99.90
2019-05-22T07:23:09.187Z,99.90
2019-05-22T07:25:40.275Z,99.90
2019-05-22T07:28:10.403Z,99.90
2019-05-22T07:30:40.535Z,99.90
2019-05-22T07:33:10.367Z,99.90
2019-05-22T07:35:56.719Z,99.90
2019-05-22T07:38:13.377Z,99.90
2019-05-22T07:40:43.924Z,99.90
2019-05-22T07:43:13.955Z,99.90
2019-05-22T07:45:43.799Z,99.90
2019-05-22T07:48:14.826Z,99.90
2019-05-22T07:50:49.608Z,99.90
2019-05-22T07:53:20.467Z,99.90
2019-05-22T07:55:52.431Z,99.90
2019-05-22T07:58:22.705Z,99.90
2019-05-22T08:00:55.619Z,99.90
2019-05-22T08:03:27.087Z,99.90
2019-05-22T08:05:58.203Z,99.90
2019-05-22T08:08:29.662Z,99.90
2019-05-22T08:11:06.398Z,99.90
2019-05-22T08:13:37.713Z,99.90
2019-05-22T08:16:08.293Z,99.90
2019-05-22T08:18:39.340Z,99.90
2019-05-22T08:21:10.071Z,99.90
2019-05-22T08:23:39.720Z,99.90
2019-05-22T08:26:10.618Z,99.90
2019-05-22T08:28:42.305Z,99.90
2019-05-22T08:31:13.188Z,99.90
2019-05-22T08:33:42.799Z,99.90
2019-05-22T08:36:14.250Z,99.90
2019-05-22T08:38:45.655Z,99.90
2019-05-22T08:41:19.235Z,99.90
2019-05-22T08:44:13.838Z,99.90
2019-05-22T08:46:20.375Z,99.90
2019-05-22T08:48:50.118Z,99.90
2019-05-22T08:51:21.093Z,99.90
2019-05-22T08:53:51.903Z,99.90
2019-05-22T08:56:22.395Z,99.90
2019-05-22T08:58:54.167Z,99.90
2019-05-22T09:01:24.572Z,99.90
2019-05-22T09:03:54.572Z,99.90
2019-05-22T09:06:24.787Z,99.90
2019-05-22T09:08:54.534Z,99.90
2019-05-22T09:11:23.966Z,99.90
2019-05-22T09:13:53.512Z,99.90
2019-05-22T09:16:23.885Z,99.90
2019-05-22T09:18:54.188Z,99.90
2019-05-22T09:21:25.145Z,99.90
2019-05-22T09:23:55.967Z,99.90
2019-05-22T09:26:25.949Z,99.90
2019-05-22T09:28:55.687Z,99.90
2019-05-22T09:31:25.205Z,99.90
2019-05-22T09:33:54.632Z,99.90
2019-05-22T09:36:24.234Z,99.90
2019-05-22T09:38:55.265Z,99.90
2019-05-22T09:41:25.278Z,99.90
2019-05-22T09:43:55.235Z,99.90
2019-05-22T09:46:25.806Z,99.90
2019-05-22T09:48:56.585Z,99.90
2019-05-22T09:51:28.203Z,99.90
2019-05-22T09:53:57.851Z,99.90
2019-05-22T09:56:29.717Z,99.90
2019-05-22T09:58:59.888Z,99.90
2019-05-22T10:01:29.695Z,99.90
2019-05-22T10:03:59.851Z,99.90
2019-05-22T10:06:29.255Z,99.90
2019-05-22T10:08:59.567Z,99.90
2019-05-22T10:11:29.302Z,99.90
2019-05-22T10:14:00.176Z,99.90
2019-05-22T10:16:29.919Z,99.90
2019-05-22T10:18:59.760Z,99.90
2019-05-22T10:21:29.523Z,99.90
2019-05-22T10:24:01.779Z,99.90
2019-05-22T10:26:33.051Z,99.90
2019-05-22T10:29:03.082Z,99.90
2019-05-22T10:31:32.562Z,99.90
2019-05-22T10:34:02.096Z,99.90
2019-05-22T10:36:31.734Z,99.90
2019-05-22T10:39:02.105Z,99.90
2019-05-22T10:41:33.087Z,99.90
2019-05-22T10:44:03.643Z,99.90
2019-05-22T10:46:33.596Z,99.90
2019-05-22T10:49:04.045Z,99.90
2019-05-22T10:51:33.725Z,99.90
2019-05-22T10:54:04.307Z,99.90
2019-05-22T10:56:34.779Z,99.90
2019-05-22T10:59:04.682Z,99.90
2019-05-22T11:01:37.441Z,99.90
2019-05-22T11:04:06.177Z,99.90
2019-05-22T11:06:36.427Z,99.90
2019-05-22T11:09:08.765Z,99.90
2019-05-22T11:11:39.604Z,99.90
2019-05-22T11:14:09.955Z,99.90
2019-05-22T11:16:39.587Z,99.90
2019-05-22T11:19:09.598Z,99.90
2019-05-22T11:21:39.811Z,99.90
2019-05-22T11:24:10.086Z,99.90
2019-05-22T11:26:40.117Z,99.90
2019-05-22T11:29:10.015Z,99.90
2019-05-22T11:31:40.068Z,99.90
2019-05-22T11:34:09.796Z,99.90
2019-05-22T11:36:39.943Z,99.90
2019-05-22T11:39:13.727Z,99.90
2019-05-22T11:41:44.010Z,99.90
2019-05-22T11:44:14.309Z,99.90
2019-05-22T11:46:43.779Z,99.90
2019-05-22T11:49:13.564Z,99.90
2019-05-22T11:51:43.293Z,99.90
2019-05-22T11:54:13.075Z,99.90
2019-05-22T11:56:43.412Z,99.90
2019-05-22T11:59:15.427Z,99.90
2019-05-22T12:01:46.086Z,99.90
2019-05-22T12:04:16.069Z,99.90
2019-05-22T12:06:47.043Z,99.90
2019-05-22T12:09:16.879Z,99.90
2019-05-22T12:11:46.855Z,99.90
2019-05-22T12:14:19.423Z,99.90
2019-05-22T12:16:53.102Z,99.90
2019-05-22T12:19:22.577Z,99.90
2019-05-22T12:21:52.199Z,99.90
2019-05-22T12:24:27.995Z,99.90
2019-05-22T12:26:53.528Z,99.90
2019-05-22T12:29:23.844Z,99.90
2019-05-22T12:31:53.459Z,99.90
2019-05-22T12:34:23.239Z,99.90
2019-05-22T12:36:54.832Z,99.90
2019-05-22T12:39:25.279Z,99.90
2019-05-22T12:41:54.850Z,99.90
2019-05-22T12:44:25.392Z,99.90
2019-05-22T12:46:55.029Z,99.90
2019-05-22T12:49:25.124Z,99.90
2019-05-22T12:51:55.504Z,99.90
2019-05-22T12:54:24.957Z,99.90
2019-05-22T12:56:55.289Z,99.90
2019-05-22T12:59:26.604Z,99.90
2019-05-22T13:01:58.079Z,99.90
2019-05-22T13:04:29.431Z,99.90
2019-05-22T13:07:02.300Z,99.90
2019-05-22T13:09:32.131Z,99.90
2019-05-22T13:12:02.070Z,99.90
2019-05-22T13:14:31.460Z,99.90
2019-05-22T13:17:01.680Z,99.90
2019-05-22T13:19:33.660Z,99.90
2019-05-22T13:22:04.471Z,99.90
2019-05-22T13:24:36.556Z,99.90
2019-05-22T13:27:10.034Z,99.90
2019-05-22T13:29:40.697Z,99.90
2019-05-22T13:32:12.792Z,99.90
2019-05-22T13:34:42.531Z,99.90
2019-05-22T13:37:12.536Z,99.90
2019-05-22T13:39:42.452Z,99.90
2019-05-22T13:42:13.583Z,99.90
2019-05-22T13:44:44.162Z,99.90
2019-05-22T13:47:14.318Z,99.90
2019-05-22T13:49:45.034Z,99.90
2019-05-22T13:52:16.148Z,99.90
2019-05-22T13:54:47.767Z,99.90
2019-05-22T13:57:17.522Z,99.90
2019-05-22T13:59:47.656Z,99.90
2019-05-22T14:02:17.384Z,99.90
2019-05-22T14:04:47.072Z,99.90
2019-05-22T14:07:16.911Z,99.90
2019-05-22T14:09:46.542Z,99.90
2019-05-22T14:12:16.107Z,99.90
2019-05-22T14:14:45.637Z,99.90
2019-05-22T14:17:15.470Z,99.90
2019-05-22T14:19:44.986Z,99.90
2019-05-22T14:22:15.066Z,99.90
2019-05-22T14:24:45.068Z,99.90
2019-05-22T14:27:14.978Z,99.90
2019-05-22T14:29:44.664Z,99.90
2019-05-22T14:32:15.090Z,99.90
2019-05-22T14:34:45.753Z,99.90
2019-05-22T14:37:16.019Z,99.90
2019-05-22T14:39:46.042Z,99.90
2019-05-22T14:42:17.164Z,99.90
2019-05-22T14:44:47.001Z,99.90
2019-05-22T14:47:17.127Z,99.90
2019-05-22T14:49:46.959Z,99.90
2019-05-22T14:52:17.294Z,99.90
2019-05-22T14:54:46.871Z,99.90
2019-05-22T14:57:16.717Z,99.90
2019-05-22T14:59:46.825Z,99.90
2019-05-22T15:02:17.572Z,99.90
2019-05-22T15:04:47.337Z,99.90
2019-05-22T15:07:17.308Z,99.90
2019-05-22T15:09:47.123Z,99.90
2019-05-22T15:12:16.991Z,99.90
2019-05-22T15:14:46.989Z,99.90
2019-05-22T15:17:31.796Z,99.90
2019-05-22T15:19:49.445Z,99.90
2019-05-22T15:22:19.040Z,99.90
2019-05-22T15:24:49.525Z,99.90
2019-05-22T15:27:19.496Z,99.90
2019-05-22T15:29:49.218Z,99.90
2019-05-22T15:32:19.771Z,99.90
2019-05-22T15:34:50.182Z,99.90
2019-05-22T15:37:21.742Z,99.90
2019-05-22T15:39:51.660Z,99.90
2019-05-22T15:42:36.397Z,99.90
2019-05-22T15:45:08.480Z,99.80
2019-05-22T15:47:53.273Z,99.40
2019-05-22T15:50:11.387Z,99.90
2019-05-22T15:52:43.177Z,97.70
2019-05-22T15:55:15.186Z,97.60
2019-05-22T15:57:45.265Z,97.10
2019-05-22T16:00:21.498Z,97.00
2019-05-22T16:02:52.189Z,96.60
2019-05-22T16:05:23.464Z,94.90
2019-05-22T16:07:53.843Z,93.90
2019-05-22T16:10:26.170Z,92.50
2019-05-22T16:12:57.450Z,92.00
2019-05-22T16:15:28.256Z,92.70
2019-05-22T16:18:10.865Z,92.50
2019-05-22T16:20:32.872Z,92.10
2019-05-22T16:23:02.916Z,92.30
2019-05-22T16:25:33.807Z,93.00
2019-05-22T16:28:04.359Z,91.90
2019-05-22T16:30:34.027Z,92.00
2019-05-22T16:33:06.478Z,92.10
2019-05-22T16:35:38.272Z,90.80
2019-05-22T16:38:10.033Z,91.50
2019-05-22T16:40:40.589Z,90.90
2019-05-22T16:43:11.019Z,90.60
2019-05-22T16:45:41.487Z,90.90
2019-05-22T16:48:27.671Z,91.90
2019-05-22T16:50:47.178Z,91.80
2019-05-22T16:53:21.473Z,92.00
2019-05-22T16:55:51.155Z,92.40
2019-05-22T16:58:22.817Z,92.60
2019-05-22T17:00:56.919Z,93.40
2019-05-22T17:03:28.194Z,93.20
2019-05-22T17:05:59.102Z,93.10
2019-05-22T17:08:30.348Z,93.50
2019-05-22T17:11:02.581Z,93.40
2019-05-22T17:13:34.347Z,93.00
2019-05-22T17:16:04.787Z,93.80
2019-05-22T17:18:47.237Z,93.80
2019-05-22T17:21:08.509Z,93.10
2019-05-22T17:23:38.922Z,93.20
2019-05-22T17:26:09.125Z,93.20
2019-05-22T17:28:38.656Z,93.00
2019-05-22T17:31:08.505Z,92.30
2019-05-22T17:33:38.467Z,92.80
2019-05-22T17:36:08.936Z,93.10
2019-05-22T17:38:40.811Z,94.10
2019-05-22T17:41:11.739Z,93.90
2019-05-22T17:43:43.536Z,93.70
2019-05-22T17:46:16.403Z,93.80
2019-05-22T17:48:49.210Z,93.70
2019-05-22T17:51:21.264Z,93.80
2019-05-22T17:53:51.155Z,93.20
2019-05-22T17:56:21.397Z,93.10
2019-05-22T17:58:50.920Z,92.80
2019-05-22T18:01:21.601Z,93.10
2019-05-22T18:03:52.211Z,92.70
2019-05-22T18:06:22.035Z,92.10
2019-05-22T18:08:52.101Z,92.00
2019-05-22T18:11:21.770Z,92.10
2019-05-22T18:13:58.709Z,92.80
2019-05-22T18:16:29.199Z,92.90
2019-05-22T18:19:03.126Z,92.90
2019-05-22T18:21:33.862Z,93.00
2019-05-22T18:24:03.801Z,92.80
2019-05-22T18:26:34.004Z,93.70
2019-05-22T18:29:04.843Z,92.80
2019-05-22T18:31:34.897Z,92.60
2019-05-22T18:34:05.089Z,92.70
2019-05-22T18:36:34.827Z,93.00
2019-05-22T18:39:07.589Z,93.70
2019-05-22T18:41:37.923Z,94.50
2019-05-22T18:44:07.929Z,94.60
2019-05-22T18:46:39.428Z,94.70
2019-05-22T18:49:09.348Z,96.30
2019-05-22T18:51:39.172Z,97.10
2019-05-22T18:54:09.067Z,98.20
2019-05-22T18:56:39.003Z,98.90
2019-05-22T18:59:08.949Z,99.40
2019-05-22T19:01:38.999Z,99.90
2019-05-22T19:04:08.812Z,99.90
2019-05-22T19:06:38.774Z,99.80
2019-05-22T19:09:10.557Z,99.70
2019-05-22T19:11:40.735Z,99.90
2019-05-22T19:14:11.292Z,99.90
2019-05-22T19:16:41.054Z,99.90
2019-05-22T19:19:10.815Z,99.90
2019-05-22T19:21:40.636Z,99.90
2019-05-22T19:24:10.617Z,99.90
2019-05-22T19:26:40.287Z,99.90
2019-05-22T19:29:10.204Z,99.90
2019-05-22T19:31:40.099Z,99.90
2019-05-22T19:34:10.977Z,99.90
2019-05-22T19:36:42.787Z,99.90
2019-05-22T19:39:12.912Z,99.90
2019-05-22T19:41:42.418Z,99.90
2019-05-22T19:44:13.321Z,99.90
2019-05-22T19:46:43.478Z,99.90
2019-05-22T19:49:13.747Z,99.90
2019-05-22T19:51:44.906Z,99.90
2019-05-22T19:54:15.077Z,99.90
2019-05-22T19:56:46.891Z,99.90
2019-05-22T19:59:16.862Z,99.90
2019-05-22T20:01:46.592Z,99.90
2019-05-22T20:04:17.302Z,99.90
2019-05-22T20:06:46.987Z,99.90
2019-05-22T20:09:17.616Z,99.90
2019-05-22T20:11:47.695Z,99.90
2019-05-22T20:14:18.018Z,99.90
2019-05-22T20:16:47.733Z,99.90
2019-05-22T20:19:18.381Z,99.90
2019-05-22T20:21:49.535Z,99.90
2019-05-22T20:24:19.509Z,99.90
2019-05-22T20:26:49.283Z,99.90
2019-05-22T20:29:19.870Z,99.90
2019-05-22T20:31:50.241Z,99.90
2019-05-22T20:34:20.625Z,99.90
2019-05-22T20:36:50.759Z,99.90
2019-05-22T20:39:22.335Z,99.90
2019-05-22T20:41:52.477Z,99.90
2019-05-22T20:44:22.950Z,99.90
2019-05-22T20:46:53.273Z,99.90
2019-05-22T20:49:22.945Z,99.90
2019-05-22T20:51:53.681Z,99.90
2019-05-22T20:54:24.630Z,99.90
2019-05-22T20:56:54.757Z,99.90
2019-05-22T20:59:24.462Z,99.90
2019-05-22T21:01:55.367Z,99.90
2019-05-22T21:04:27.248Z,99.90
2019-05-22T21:07:01.229Z,99.90
2019-05-22T21:09:31.524Z,99.90
2019-05-22T21:12:01.538Z,99.90
2019-05-22T21:14:31.418Z,99.90
2019-05-22T21:17:02.186Z,99.90
2019-05-22T21:19:33.013Z,99.90
2019-05-22T21:22:02.989Z,99.90
2019-05-22T21:24:36.132Z,99.90
2019-05-22T21:27:06.232Z,99.90
2019-05-22T21:29:35.874Z,99.90
2019-05-22T21:32:07.567Z,99.90
2019-05-22T21:34:38.112Z,99.90
2019-05-22T21:37:08.497Z,99.90
2019-05-22T21:39:38.422Z,99.90
2019-05-22T21:42:08.752Z,99.90
2019-05-22T21:44:38.323Z,99.90
2019-05-22T21:47:09.563Z,99.90
2019-05-22T21:49:40.038Z,99.90
2019-05-22T21:52:12.142Z,99.90
2019-05-22T21:54:42.382Z,99.90
2019-05-22T21:57:13.352Z,99.90
2019-05-22T21:59:43.773Z,99.90
2019-05-22T22:02:20.733Z,99.90
2019-05-22T22:04:51.354Z,99.90
2019-05-22T22:07:21.468Z,99.90
2019-05-22T22:09:52.578Z,99.90
2019-05-22T22:12:23.962Z,99.90
2019-05-22T22:14:53.923Z,99.90
2019-05-22T22:17:25.094Z,99.90
2019-05-22T22:19:54.945Z,99.90
2019-05-22T22:22:29.470Z,99.90
2019-05-22T22:24:59.715Z,99.90
2019-05-22T22:27:29.482Z,99.90
2019-05-22T22:29:59.438Z,99.90
2019-05-22T22:32:30.886Z,99.90
2019-05-22T22:35:01.049Z,99.90
2019-05-22T22:37:31.249Z,99.90
2019-05-22T22:40:04.618Z,99.90
2019-05-22T22:42:36.921Z,99.90
2019-05-22T22:45:11.494Z,99.90
2019-05-22T22:47:46.050Z,99.90
2019-05-22T22:50:18.012Z,99.90
2019-05-22T22:52:48.604Z,99.90
2019-05-22T22:55:20.052Z,99.90
2019-05-22T22:57:52.256Z,99.90
2019-05-22T23:00:35.813Z,99.90
2019-05-22T23:03:10.294Z,99.90
2019-05-22T23:05:40.383Z,99.90
2019-05-22T23:08:14.464Z,99.90
2019-05-22T23:10:44.857Z,99.90
2019-05-22T23:13:16.031Z,99.90
2019-05-22T23:15:46.467Z,99.90
2019-05-22T23:18:31.727Z,99.90
2019-05-22T23:21:09.286Z,99.90
2019-05-22T23:23:37.829Z,99.90
2019-05-22T23:26:09.866Z,99.90
2019-05-22T23:28:42.214Z,99.90
2019-05-22T23:31:14.109Z,99.90
2019-05-22T23:33:44.068Z,99.90
2019-05-22T23:36:15.356Z,99.90
2019-05-22T23:38:45.351Z,99.90
2019-05-22T23:41:15.975Z,99.90
2019-05-22T23:43:47.372Z,99.90
2019-05-22T23:46:18.335Z,99.90
2019-05-22T23:48:48.199Z,99.90
2019-05-22T23:51:18.913Z,99.90
2019-05-22T23:53:50.613Z,99.90
2019-05-22T23:56:22.334Z,99.90
2019-05-22T23:58:53.481Z,99.90
